createdAt,value
2022-09-15T00:00:08.192Z,4.68
2022-09-15T00:02:35.472Z,3.80
2022-09-15T00:05:02.847Z,4.03
2022-09-15T00:07:31.999Z,4.45
2022-09-15T00:09:59.567Z,4.90
2022-09-15T00:12:27.434Z,4.20
2022-09-15T00:14:55.172Z,4.63
2022-09-15T00:17:22.140Z,4.80
2022-09-15T00:19:49.283Z,4.72
2022-09-15T00:22:17.321Z,4.80
2022-09-15T00:24:46.317Z,5.20
2022-09-15T00:27:13.656Z,4.85
2022-09-15T00:29:40.635Z,4.75
2022-09-15T00:32:07.956Z,4.85
2022-09-15T00:34:35.162Z,4.82
2022-09-15T00:37:02.268Z,4.97
2022-09-15T00:39:30.421Z,4.70
2022-09-15T00:42:01.350Z,4.60
2022-09-15T00:44:49.757Z,4.70
2022-09-15T00:47:19.916Z,5.10
2022-09-15T00:49:50.964Z,5.18
2022-09-15T00:52:21.244Z,5.10
2022-09-15T00:54:55.017Z,4.97
2022-09-15T00:57:29.167Z,5.30
2022-09-15T00:59:57.715Z,5.43
2022-09-15T01:02:28.309Z,6.88
2022-09-15T01:04:58.685Z,5.72
2022-09-15T01:07:37.899Z,5.50
2022-09-15T01:10:08.485Z,5.68
2022-09-15T01:12:37.583Z,4.95
2022-09-15T01:15:05.735Z,5.35
2022-09-15T01:23:33.242Z,4.82
2022-09-15T01:26:27.596Z,5.03
2022-09-15T01:29:31.440Z,4.45
2022-09-15T01:32:07.733Z,4.90
2022-09-15T01:34:42.334Z,5.00
2022-09-15T01:37:16.911Z,5.13
2022-09-15T01:39:48.542Z,5.17
2022-09-15T01:42:17.533Z,5.50
2022-09-15T01:44:50.083Z,4.50
2022-09-15T01:47:21.455Z,4.50
2022-09-15T01:49:54.120Z,5.10
2022-09-15T01:52:24.816Z,4.63
2022-09-15T01:54:56.487Z,4.70
2022-09-15T01:57:24.019Z,5.00
2022-09-15T01:59:54.018Z,4.82
2022-09-15T02:02:31.048Z,4.30
2022-09-15T02:05:03.440Z,4.95
2022-09-15T02:07:40.031Z,4.80
2022-09-15T02:10:15.970Z,4.82
2022-09-15T02:12:48.206Z,4.35
2022-09-15T02:15:22.488Z,4.10
2022-09-15T02:17:53.256Z,3.20
2022-09-15T02:20:33.956Z,3.63
2022-09-15T02:23:07.056Z,3.45
2022-09-15T02:25:39.689Z,3.65
2022-09-15T02:28:10.322Z,4.30
2022-09-15T02:30:40.639Z,4.05
2022-09-15T02:33:13.891Z,3.65
2022-09-15T02:35:42.250Z,3.20
2022-09-15T02:38:11.678Z,2.60
2022-09-15T02:40:43.712Z,2.88
2022-09-15T02:43:13.594Z,3.08
2022-09-15T02:45:42.898Z,3.78
2022-09-15T02:48:12.643Z,3.63
2022-09-15T02:50:39.943Z,3.30
2022-09-15T02:53:08.236Z,3.40
2022-09-15T02:55:35.509Z,3.30
2022-09-15T02:58:03.067Z,3.40
2022-09-15T03:00:30.844Z,3.15
2022-09-15T03:02:58.016Z,3.13
2022-09-15T03:05:29.227Z,3.60
2022-09-15T03:07:57.202Z,3.30
2022-09-15T03:10:26.080Z,3.15
2022-09-15T03:12:55.324Z,3.10
2022-09-15T03:15:24.888Z,3.72
2022-09-15T03:17:53.140Z,3.40
2022-09-15T03:20:23.242Z,3.22
2022-09-15T03:22:52.446Z,3.47
2022-09-15T03:25:20.542Z,4.07
2022-09-15T03:27:47.961Z,3.80
2022-09-15T03:30:15.520Z,3.45
2022-09-15T03:32:42.652Z,3.33
2022-09-15T03:35:10.559Z,3.83
2022-09-15T03:37:37.880Z,3.75
2022-09-15T03:40:09.192Z,4.03
2022-09-15T03:42:36.998Z,3.90
2022-09-15T03:45:05.152Z,4.07
2022-09-15T03:47:32.964Z,3.63
2022-09-15T03:50:00.318Z,3.50
2022-09-15T03:52:31.087Z,3.53
2022-09-15T03:54:59.041Z,3.50
2022-09-15T03:57:28.167Z,3.50
2022-09-15T03:59:55.848Z,3.35
2022-09-15T04:02:23.848Z,3.25
2022-09-15T04:04:51.423Z,3.88
2022-09-15T04:07:18.873Z,3.50
2022-09-15T04:09:45.964Z,3.90
2022-09-15T04:12:13.615Z,3.50
2022-09-15T04:14:43.198Z,3.83
2022-09-15T04:17:10.343Z,3.95
2022-09-15T04:19:37.806Z,3.63
2022-09-15T04:22:05.607Z,3.45
2022-09-15T04:24:32.586Z,3.58
2022-09-15T04:27:00.319Z,3.42
2022-09-15T04:29:27.505Z,3.60
2022-09-15T04:31:56.547Z,3.63
2022-09-15T04:34:24.095Z,3.88
2022-09-15T04:36:52.007Z,3.15
2022-09-15T04:39:19.197Z,3.10
2022-09-15T04:41:46.727Z,3.50
2022-09-15T04:44:14.593Z,3.53
2022-09-15T04:46:41.796Z,3.58
2022-09-15T04:49:10.782Z,4.20
2022-09-15T04:51:39.096Z,3.60
2022-09-15T04:54:06.878Z,3.88
2022-09-15T04:56:34.454Z,3.55
2022-09-15T04:59:04.211Z,3.10
2022-09-15T05:01:33.333Z,3.20
2022-09-15T05:04:01.834Z,4.20
2022-09-15T05:06:30.332Z,3.42
2022-09-15T05:08:58.510Z,4.25
2022-09-15T05:11:27.226Z,3.50
2022-09-15T05:13:54.877Z,3.53
2022-09-15T05:16:24.382Z,3.42
2022-09-15T05:18:54.566Z,3.65
2022-09-15T05:21:23.731Z,3.60
2022-09-15T05:23:54.121Z,3.60
2022-09-15T05:26:23.874Z,3.85
2022-09-15T05:28:51.666Z,4.03
2022-09-15T05:31:21.296Z,3.90
2022-09-15T05:33:50.418Z,4.00
2022-09-15T05:36:18.837Z,4.20
2022-09-15T05:38:46.529Z,4.55
2022-09-15T05:41:16.693Z,4.55
2022-09-15T05:43:45.462Z,4.72
2022-09-15T05:46:14.335Z,4.10
2022-09-15T05:48:41.794Z,4.10
2022-09-15T05:51:09.345Z,4.00
2022-09-15T05:53:38.104Z,4.10
2022-09-15T05:56:08.202Z,3.80
2022-09-15T05:58:39.915Z,3.97
2022-09-15T06:01:08.694Z,3.88
2022-09-15T06:03:36.480Z,3.88
2022-09-15T06:06:05.969Z,4.15
2022-09-15T06:08:35.364Z,3.80
2022-09-15T06:11:04.406Z,3.60
2022-09-15T06:13:31.763Z,3.75
2022-09-15T06:16:06.435Z,3.88
2022-09-15T06:18:34.737Z,4.35
2022-09-15T06:21:10.735Z,7.10
2022-09-15T06:23:38.783Z,5.63
2022-09-15T06:26:07.754Z,4.45
2022-09-15T06:28:34.850Z,4.63
2022-09-15T06:31:03.874Z,4.35
2022-09-15T06:33:30.899Z,4.82
2022-09-15T06:36:01.768Z,4.38
2022-09-15T06:38:29.918Z,4.00
2022-09-15T06:40:58.716Z,4.18
2022-09-15T06:43:26.736Z,4.45
2022-09-15T06:45:54.635Z,4.18
2022-09-15T06:48:25.237Z,4.20
2022-09-15T06:50:55.277Z,3.80
2022-09-15T06:53:23.466Z,4.28
2022-09-15T06:55:51.275Z,4.13
2022-09-15T06:58:18.924Z,4.47
2022-09-15T07:00:46.263Z,4.38
2022-09-15T07:03:13.845Z,4.47
2022-09-15T07:05:43.987Z,4.82
2022-09-15T07:08:11.375Z,4.60
2022-09-15T07:10:39.116Z,4.50
2022-09-15T07:13:06.610Z,4.60
2022-09-15T07:15:33.647Z,4.30
2022-09-15T07:18:00.558Z,3.90
2022-09-15T07:20:27.675Z,3.92
2022-09-15T07:22:56.071Z,4.00
2022-09-15T07:25:23.136Z,3.95
2022-09-15T07:27:50.315Z,3.47
2022-09-15T07:30:18.028Z,3.80
2022-09-15T07:32:45.118Z,3.65
2022-09-15T07:35:12.840Z,3.58
2022-09-15T07:37:40.276Z,3.92
2022-09-15T07:40:11.187Z,3.55
2022-09-15T07:42:42.200Z,3.70
2022-09-15T07:45:10.345Z,3.35
2022-09-15T07:47:37.891Z,3.35
2022-09-15T07:50:06.500Z,3.17
2022-09-15T07:52:34.078Z,3.00
2022-09-15T07:55:01.328Z,2.85
2022-09-15T07:57:30.008Z,2.50
2022-09-15T07:59:57.366Z,2.30
2022-09-15T08:02:24.686Z,1.92
2022-09-15T08:04:51.672Z,1.90
2022-09-15T08:07:18.949Z,2.40
2022-09-15T08:09:45.913Z,2.35
2022-09-15T08:12:12.893Z,2.30
2022-09-15T08:14:41.843Z,2.53
2022-09-15T08:17:11.501Z,2.08
2022-09-15T08:19:38.950Z,2.22
2022-09-15T08:22:05.975Z,2.13
2022-09-15T08:24:32.886Z,1.75
2022-09-15T08:27:00.315Z,2.00
2022-09-15T08:29:27.346Z,1.92
2022-09-15T08:31:56.152Z,2.45
2022-09-15T08:34:23.235Z,2.30
2022-09-15T08:36:50.667Z,2.03
2022-09-15T08:39:17.702Z,1.73
2022-09-15T08:41:47.164Z,2.22
2022-09-15T08:44:25.092Z,1.98
2022-09-15T08:46:58.838Z,2.05
2022-09-15T08:49:49.942Z,1.90
2022-09-15T08:52:22.624Z,1.50
2022-09-15T08:54:53.129Z,1.73
2022-09-15T08:57:23.638Z,1.60
2022-09-15T08:59:51.101Z,1.95
2022-09-15T09:02:51.593Z,1.73
2022-09-15T09:05:33.272Z,1.60
2022-09-15T09:08:18.382Z,1.60
2022-09-15T09:10:51.740Z,2.25
2022-09-15T09:13:35.265Z,1.75
2022-09-15T09:16:20.664Z,1.50
2022-09-15T09:19:03.825Z,1.50
2022-09-15T09:21:36.064Z,1.67
2022-09-15T09:24:09.124Z,1.40
2022-09-15T09:26:37.041Z,1.30
2022-09-15T09:29:11.896Z,1.25
2022-09-15T09:31:40.904Z,1.48
2022-09-15T09:34:18.560Z,1.50
2022-09-15T09:36:53.127Z,1.10
2022-09-15T09:39:20.120Z,1.60
2022-09-15T09:41:47.644Z,1.30
2022-09-15T09:44:15.266Z,1.40
2022-09-15T09:46:44.057Z,1.60
2022-09-15T09:49:18.936Z,1.67
2022-09-15T09:51:54.013Z,1.50
2022-09-15T09:56:50.237Z,1.63
2022-09-15T09:59:43.676Z,1.48
2022-09-15T10:02:16.761Z,1.60
2022-09-15T10:04:45.414Z,2.05
2022-09-15T10:07:15.492Z,1.77
2022-09-15T10:09:50.682Z,2.20
2022-09-15T10:14:52.660Z,1.75
2022-09-15T10:17:21.976Z,1.52
2022-09-15T10:19:51.860Z,1.58
2022-09-15T10:22:30.881Z,2.10
2022-09-15T10:24:58.884Z,1.73
2022-09-15T10:27:31.044Z,2.17
2022-09-15T10:30:00.651Z,2.05
2022-09-15T10:32:29.612Z,2.63
2022-09-15T10:35:01.653Z,2.17
2022-09-15T10:37:34.524Z,2.45
2022-09-15T10:40:11.145Z,2.60
2022-09-15T10:42:50.567Z,2.13
2022-09-15T10:45:25.947Z,2.00
2022-09-15T10:50:49.125Z,1.40
2022-09-15T10:53:32.332Z,1.60
2022-09-15T10:56:10.709Z,1.60
2022-09-15T10:58:49.254Z,1.60
2022-09-15T11:01:48.601Z,1.50
2022-09-15T11:05:04.444Z,1.60
2022-09-15T11:07:40.404Z,1.08
2022-09-15T11:10:16.724Z,1.60
2022-09-15T11:12:59.510Z,1.70
2022-09-15T11:15:50.930Z,1.80
2022-09-15T11:18:39.143Z,1.70
2022-09-15T11:21:19.598Z,1.98
2022-09-15T11:23:54.724Z,1.23
2022-09-15T11:26:29.806Z,1.65
2022-09-15T11:29:03.256Z,1.40
2022-09-15T11:31:34.105Z,1.65
2022-09-15T11:34:07.511Z,1.10
2022-09-15T11:36:40.882Z,1.23
2022-09-15T11:39:15.946Z,1.13
2022-09-15T11:41:47.488Z,0.88
2022-09-15T11:44:21.576Z,1.55
2022-09-15T11:47:03.200Z,0.98
2022-09-15T11:49:37.145Z,0.80
2022-09-15T11:52:11.479Z,0.90
2022-09-15T11:54:45.612Z,1.00
2022-09-15T11:57:18.584Z,0.80
2022-09-15T11:59:53.864Z,1.55
2022-09-15T12:02:27.144Z,1.00
2022-09-15T12:05:07.401Z,1.20
2022-09-15T12:07:42.539Z,0.98
2022-09-15T12:10:18.202Z,1.17
2022-09-15T12:12:48.193Z,1.10
2022-09-15T12:15:17.414Z,1.15
2022-09-15T12:17:52.843Z,1.30
2022-09-15T12:20:25.505Z,1.30
2022-09-15T12:22:58.204Z,1.30
2022-09-15T12:25:29.068Z,1.38
2022-09-15T12:28:37.339Z,1.17
2022-09-15T12:31:27.815Z,1.58
2022-09-15T12:33:57.128Z,2.22
2022-09-15T12:36:41.551Z,1.75
2022-09-15T12:39:36.692Z,1.90
2022-09-15T12:42:13.787Z,2.22
2022-09-15T12:44:46.053Z,1.85
2022-09-15T12:47:30.808Z,2.13
2022-09-15T12:50:02.418Z,2.03
2022-09-15T12:52:29.929Z,2.08
2022-09-15T12:55:01.682Z,2.05
2022-09-15T12:57:32.087Z,1.50
2022-09-15T13:01:13.843Z,1.45
2022-09-15T13:04:07.059Z,1.60
2022-09-15T13:06:36.382Z,1.30
2022-09-15T13:09:27.857Z,2.00
2022-09-15T13:11:56.719Z,1.73
2022-09-15T13:14:29.258Z,2.08
2022-09-15T13:17:00.136Z,1.42
2022-09-15T13:19:37.632Z,2.08
2022-09-15T13:22:15.296Z,1.60
2022-09-15T13:24:47.254Z,1.58
2022-09-15T13:27:17.480Z,1.90
2022-09-15T13:29:50.005Z,1.65
2022-09-15T13:32:28.698Z,1.83
2022-09-15T13:35:33.017Z,1.65
2022-09-15T13:41:25.663Z,1.80
2022-09-15T13:44:25.049Z,1.77
2022-09-15T13:47:05.083Z,1.67
2022-09-15T13:49:56.072Z,2.08
2022-09-15T13:52:35.699Z,1.60
2022-09-15T13:55:17.138Z,1.30
2022-09-15T14:00:43.798Z,1.52
2022-09-15T14:03:14.111Z,1.42
2022-09-15T14:05:41.550Z,1.50
2022-09-15T14:08:13.906Z,1.65
2022-09-15T14:10:47.382Z,1.30
2022-09-15T14:13:18.550Z,1.30
2022-09-15T14:15:57.822Z,1.67
2022-09-15T14:18:25.143Z,1.40
2022-09-15T14:21:00.610Z,1.40
2022-09-15T14:23:27.728Z,1.13
2022-09-15T14:25:58.256Z,1.45
2022-09-15T14:28:31.540Z,1.58
2022-09-15T14:30:59.842Z,1.58
2022-09-15T14:33:37.611Z,1.60
2022-09-15T14:36:13.696Z,1.77
2022-09-15T14:38:41.190Z,1.13
2022-09-15T14:41:19.068Z,1.50
2022-09-15T14:43:46.316Z,1.25
2022-09-15T14:46:15.413Z,1.38
2022-09-15T14:48:42.721Z,1.27
2022-09-15T14:51:18.887Z,1.40
2022-09-15T14:53:48.588Z,1.30
2022-09-15T14:56:21.628Z,1.33
2022-09-15T14:58:53.093Z,1.50
2022-09-15T15:01:23.937Z,1.10
2022-09-15T15:04:00.669Z,1.30
2022-09-15T15:06:34.205Z,1.20
2022-09-15T15:09:04.025Z,1.40
2022-09-15T15:11:35.655Z,1.85
2022-09-15T15:14:06.571Z,1.48
2022-09-15T15:16:34.489Z,1.23
2022-09-15T15:19:02.068Z,1.42
2022-09-15T15:21:37.720Z,1.38
2022-09-15T15:24:22.727Z,1.40
2022-09-15T15:29:40.869Z,1.30
2022-09-15T15:32:12.669Z,2.00
2022-09-15T15:34:39.976Z,1.23
2022-09-15T15:37:16.702Z,1.55
2022-09-15T15:39:46.910Z,1.63
2022-09-15T15:42:16.819Z,1.60
2022-09-15T15:45:00.666Z,1.40
2022-09-15T15:47:30.968Z,1.85
2022-09-15T15:50:12.854Z,9.40
2022-09-15T15:52:42.058Z,2.33
2022-09-15T15:55:14.180Z,1.35
2022-09-15T15:57:43.582Z,1.73
2022-09-15T16:00:22.078Z,1.48
2022-09-15T16:02:50.236Z,1.90
2022-09-15T16:05:18.635Z,1.40
2022-09-15T16:07:48.629Z,1.80
2022-09-15T16:10:19.051Z,1.40
2022-09-15T16:12:47.629Z,1.33
2022-09-15T16:15:17.794Z,2.08
2022-09-15T16:17:46.926Z,1.42
2022-09-15T16:20:15.422Z,2.08
2022-09-15T16:22:42.773Z,1.67
2022-09-15T16:25:15.917Z,1.55
2022-09-15T16:27:43.240Z,1.40
2022-09-15T16:30:12.173Z,1.45
2022-09-15T16:32:40.149Z,1.17
2022-09-15T16:35:21.217Z,1.77
2022-09-15T16:37:48.548Z,1.20
2022-09-15T16:40:15.923Z,1.40
2022-09-15T16:42:43.388Z,1.27
2022-09-15T16:45:21.674Z,1.30
2022-09-15T16:47:48.920Z,1.50
2022-09-15T16:50:15.970Z,1.60
2022-09-15T16:52:43.206Z,1.20
2022-09-15T16:55:20.610Z,2.30
2022-09-15T16:57:47.647Z,2.40
2022-09-15T17:00:18.741Z,1.20
2022-09-15T17:02:46.176Z,1.40
2022-09-15T17:05:18.966Z,1.40
2022-09-15T17:07:46.161Z,1.33
2022-09-15T17:10:14.034Z,1.80
2022-09-15T17:12:41.906Z,1.50
2022-09-15T17:15:22.734Z,1.58
2022-09-15T17:17:49.968Z,1.40
2022-09-15T17:20:17.529Z,2.00
2022-09-15T17:22:44.698Z,1.77
2022-09-15T17:25:30.504Z,1.40
2022-09-15T17:27:59.230Z,1.60
2022-09-15T17:30:30.390Z,1.60
2022-09-15T17:33:06.526Z,1.60
2022-09-15T17:35:35.545Z,1.30
2022-09-15T17:38:04.110Z,1.60
2022-09-15T17:40:31.695Z,1.17
2022-09-15T17:42:59.804Z,1.77
2022-09-15T17:45:30.610Z,1.70
2022-09-15T17:47:57.918Z,1.60
2022-09-15T17:50:27.228Z,2.08
2022-09-15T17:52:55.172Z,1.83
2022-09-15T17:55:26.455Z,1.80
2022-09-15T17:57:55.610Z,1.30
2022-09-15T18:00:25.489Z,1.50
2022-09-15T18:02:56.853Z,1.83
2022-09-15T18:05:26.961Z,1.77
2022-09-15T18:07:56.160Z,1.60
2022-09-15T18:10:24.824Z,1.58
2022-09-15T18:12:55.617Z,1.83
2022-09-15T18:15:25.426Z,1.48
2022-09-15T18:17:56.768Z,1.73
2022-09-15T18:20:26.384Z,4.13
2022-09-15T18:22:55.285Z,5.22
2022-09-15T18:25:24.774Z,5.78
2022-09-15T18:27:52.558Z,2.10
2022-09-15T18:30:21.512Z,1.60
2022-09-15T18:32:50.126Z,1.80
2022-09-15T18:35:21.049Z,2.13
2022-09-15T18:37:49.624Z,2.05
2022-09-15T18:40:18.798Z,2.90
2022-09-15T18:42:47.015Z,4.15
2022-09-15T18:45:16.650Z,3.50
2022-09-15T18:47:47.054Z,2.78
2022-09-15T18:50:14.189Z,2.72
2022-09-15T18:52:43.132Z,2.45
2022-09-15T18:55:14.205Z,2.58
2022-09-15T18:57:42.016Z,2.53
2022-09-15T19:00:12.757Z,2.50
2022-09-15T19:02:41.137Z,2.38
2022-09-15T19:05:09.549Z,2.53
2022-09-15T19:07:37.116Z,2.65
2022-09-15T19:10:08.318Z,2.50
2022-09-15T19:12:35.818Z,2.63
2022-09-15T19:15:03.220Z,1.95
2022-09-15T19:17:31.375Z,2.38
2022-09-15T19:19:59.441Z,2.05
2022-09-15T19:22:27.636Z,2.20
2022-09-15T19:24:55.431Z,2.50
2022-09-15T19:27:25.099Z,1.90
2022-09-15T19:29:52.961Z,2.15
2022-09-15T19:32:20.920Z,1.70
2022-09-15T19:34:49.501Z,2.13
2022-09-15T19:37:20.654Z,2.20
2022-09-15T19:39:49.105Z,2.30
2022-09-15T19:42:16.857Z,2.00
2022-09-15T19:44:46.132Z,2.05
2022-09-15T19:47:13.456Z,2.20
2022-09-15T19:49:41.170Z,2.25
2022-09-15T19:52:08.240Z,2.30
2022-09-15T19:54:36.391Z,2.05
2022-09-15T19:57:03.877Z,2.05
2022-09-15T19:59:32.179Z,2.20
2022-09-15T20:02:01.178Z,2.70
2022-09-15T20:07:13.088Z,1.73
2022-09-15T20:09:40.361Z,1.92
2022-09-15T20:12:07.694Z,2.10
2022-09-15T20:14:34.774Z,2.00
2022-09-15T20:17:03.462Z,2.13
2022-09-15T20:19:30.640Z,1.95
2022-09-15T20:21:57.548Z,2.28
2022-09-15T20:24:24.845Z,2.03
2022-09-15T20:26:54.219Z,2.13
2022-09-15T20:29:22.105Z,2.20
2022-09-15T20:31:49.218Z,2.38
2022-09-15T20:34:17.948Z,2.47
2022-09-15T20:36:45.319Z,2.15
2022-09-15T20:39:15.025Z,3.45
2022-09-15T20:41:44.264Z,2.35
2022-09-15T20:44:11.345Z,2.42
2022-09-15T20:46:38.662Z,3.20
2022-09-15T20:49:06.326Z,2.42
2022-09-15T20:51:35.800Z,2.78
2022-09-15T20:54:04.602Z,2.83
2022-09-15T20:56:33.679Z,2.70
2022-09-15T20:59:01.177Z,2.40
2022-09-15T21:01:29.914Z,2.42
2022-09-15T21:03:57.091Z,2.80
2022-09-15T21:06:25.999Z,2.53
2022-09-15T21:08:55.259Z,2.17
2022-09-15T21:11:22.899Z,2.40
2022-09-15T21:13:50.878Z,2.60
2022-09-15T21:16:19.958Z,2.35
2022-09-15T21:18:48.397Z,2.35
2022-09-15T21:21:17.221Z,3.22
2022-09-15T21:23:47.290Z,2.42
2022-09-15T21:26:17.801Z,2.00
2022-09-15T21:28:45.605Z,2.50
2022-09-15T21:31:15.439Z,2.15
2022-09-15T21:33:43.579Z,2.22
2022-09-15T21:36:12.645Z,2.20
2022-09-15T21:38:43.054Z,2.08
2022-09-15T21:41:12.502Z,2.88
2022-09-15T21:43:42.951Z,2.40
2022-09-15T21:46:12.511Z,2.25
2022-09-15T21:48:40.210Z,2.15
2022-09-15T21:51:08.660Z,2.33
2022-09-15T21:53:36.783Z,2.10
2022-09-15T21:56:06.409Z,2.53
2022-09-15T21:58:33.310Z,2.65
2022-09-15T22:01:10.127Z,2.75
2022-09-15T22:03:38.185Z,3.15
2022-09-15T22:06:05.711Z,3.38
2022-09-15T22:08:32.898Z,3.63
2022-09-15T22:11:00.949Z,3.38
2022-09-15T22:13:28.538Z,3.53
2022-09-15T22:16:02.398Z,3.22
2022-09-15T22:18:30.143Z,2.90
2022-09-15T22:21:05.136Z,3.60
2022-09-15T22:23:32.839Z,3.53
2022-09-15T22:26:05.363Z,3.20
2022-09-15T22:28:32.591Z,3.20
2022-09-15T22:31:04.487Z,3.25
2022-09-15T22:33:31.595Z,3.72
2022-09-15T22:35:59.312Z,3.03
2022-09-15T22:38:29.262Z,3.38
2022-09-15T22:40:57.211Z,3.08
2022-09-15T22:43:24.359Z,3.50
2022-09-15T22:45:51.394Z,2.90
2022-09-15T22:48:20.000Z,3.10
2022-09-15T22:50:47.032Z,3.15
2022-09-15T22:53:14.873Z,3.67
2022-09-15T22:55:42.044Z,3.10
2022-09-15T22:58:09.243Z,2.70
2022-09-15T23:00:38.031Z,2.35
2022-09-15T23:03:05.861Z,2.65
2022-09-15T23:05:34.342Z,2.78
2022-09-15T23:08:01.757Z,2.90
2022-09-15T23:10:29.836Z,2.78
2022-09-15T23:12:58.195Z,2.42
2022-09-15T23:15:25.450Z,2.25
2022-09-15T23:17:52.859Z,3.00
2022-09-15T23:20:19.855Z,2.60
2022-09-15T23:22:48.703Z,3.10
2022-09-15T23:25:16.058Z,2.55
2022-09-15T23:27:43.064Z,2.70
2022-09-15T23:30:11.399Z,2.50
2022-09-15T23:32:38.450Z,2.55
2022-09-15T23:35:06.424Z,2.38
2022-09-15T23:37:34.239Z,2.60
2022-09-15T23:40:04.289Z,2.22
2022-09-15T23:42:31.590Z,2.15
2022-09-15T23:44:58.633Z,3.78
2022-09-15T23:47:25.755Z,2.55
2022-09-15T23:49:53.150Z,2.22
2022-09-15T23:52:20.307Z,2.67
2022-09-15T23:54:47.355Z,2.55
2022-09-15T23:57:15.923Z,2.28
2022-09-15T23:59:43.090Z,2.60
